createdAt,value
2019-03-22T00:04:35.581Z,12.73
2019-03-22T00:09:48.217Z,12.88
2019-03-22T00:15:01.534Z,12.96
2019-03-22T00:20:11.854Z,13.00
2019-03-22T00:25:21.432Z,13.08
2019-03-22T00:30:33.670Z,12.81
2019-03-22T00:35:50.030Z,12.57
2019-03-22T00:41:00.090Z,12.63
2019-03-22T00:46:16.304Z,12.09
2019-03-22T00:51:26.415Z,12.23
2019-03-22T00:56:40.191Z,12.39
2019-03-22T01:01:52.000Z,12.12
2019-03-22T01:07:06.438Z,12.36
2019-03-22T01:12:20.762Z,12.30
2019-03-22T01:17:32.046Z,12.64
2019-03-22T01:22:48.037Z,12.94
2019-03-22T01:27:58.382Z,13.14
2019-03-22T01:33:12.920Z,13.23
2019-03-22T01:38:23.629Z,13.04
2019-03-22T01:43:35.148Z,13.35
2019-03-22T01:48:47.578Z,12.97
2019-03-22T01:54:04.798Z,12.47
2019-03-22T01:59:16.187Z,12.60
2019-03-22T02:04:25.492Z,12.83
2019-03-22T02:09:39.734Z,13.14
2019-03-22T02:14:47.916Z,13.06
2019-03-22T02:19:59.318Z,12.92
2019-03-22T02:25:16.142Z,12.72
2019-03-22T02:30:33.834Z,11.84
2019-03-22T02:35:46.577Z,12.05
2019-03-22T02:40:58.421Z,11.66
2019-03-22T02:46:12.479Z,11.89
2019-03-22T02:51:27.025Z,12.68
2019-03-22T02:56:39.058Z,12.55
2019-03-22T03:01:57.834Z,12.61
2019-03-22T03:07:04.343Z,12.65
2019-03-22T03:12:14.770Z,12.45
2019-03-22T03:17:24.732Z,12.67
2019-03-22T03:22:39.215Z,12.02
2019-03-22T03:27:50.739Z,12.81
2019-03-22T03:33:03.065Z,12.62
2019-03-22T03:38:13.543Z,12.38
2019-03-22T03:43:22.187Z,12.53
2019-03-22T03:48:36.078Z,12.66
2019-03-22T03:53:47.282Z,12.24
2019-03-22T03:58:58.546Z,12.38
2019-03-22T04:04:09.700Z,12.43
2019-03-22T04:09:39.970Z,12.30
2019-03-22T04:14:54.280Z,11.98
2019-03-22T04:20:06.350Z,11.70
2019-03-22T04:25:16.734Z,11.86
2019-03-22T04:30:32.503Z,12.17
2019-03-22T04:35:48.534Z,12.04
2019-03-22T04:40:59.675Z,11.97
2019-03-22T04:46:08.661Z,12.40
2019-03-22T04:51:17.669Z,12.60
2019-03-22T04:56:27.451Z,12.59
2019-03-22T05:01:38.908Z,12.87
2019-03-22T05:06:50.399Z,12.54
2019-03-22T05:12:04.089Z,12.96
2019-03-22T05:17:15.995Z,12.93
2019-03-22T05:22:24.995Z,13.31
2019-03-22T05:27:37.544Z,13.63
2019-03-22T05:32:48.738Z,13.62
2019-03-22T05:38:01.456Z,13.37
2019-03-22T05:43:10.682Z,13.68
2019-03-22T05:48:42.407Z,13.30
2019-03-22T05:53:55.801Z,13.63
2019-03-22T05:59:05.738Z,13.28
2019-03-22T06:04:17.216Z,13.18
2019-03-22T06:09:30.062Z,13.57
2019-03-22T06:14:38.276Z,13.72
2019-03-22T06:19:46.798Z,13.74
2019-03-22T06:24:58.634Z,13.84
2019-03-22T06:30:12.458Z,13.63
2019-03-22T06:35:25.573Z,13.82
2019-03-22T06:40:37.517Z,14.04
2019-03-22T06:45:46.220Z,14.16
2019-03-22T06:50:54.186Z,14.34
2019-03-22T06:56:02.846Z,14.40
2019-03-22T07:01:11.838Z,14.12
2019-03-22T07:06:21.778Z,14.38
2019-03-22T07:11:32.256Z,14.38
2019-03-22T07:16:42.324Z,14.49
2019-03-22T07:21:51.868Z,14.33
2019-03-22T07:27:01.236Z,14.41
2019-03-22T07:32:10.952Z,14.52
2019-03-22T07:37:26.165Z,14.46
2019-03-22T07:42:34.876Z,14.56
2019-03-22T07:47:45.375Z,14.44
2019-03-22T07:52:55.680Z,14.70
2019-03-22T07:58:10.628Z,14.88
2019-03-22T08:03:26.178Z,14.77
2019-03-22T08:08:35.844Z,14.89
2019-03-22T08:13:44.135Z,15.03
2019-03-22T08:18:51.980Z,15.01
2019-03-22T08:24:20.021Z,14.92
2019-03-22T08:29:26.072Z,14.94
2019-03-22T08:34:32.124Z,15.05
2019-03-22T08:39:38.576Z,14.81
2019-03-22T08:44:44.606Z,14.75
2019-03-22T08:49:52.042Z,14.88
2019-03-22T08:54:58.875Z,14.75
2019-03-22T09:00:07.749Z,14.64
2019-03-22T09:05:14.350Z,14.76
2019-03-22T09:10:20.213Z,15.11
2019-03-22T09:15:27.037Z,15.14
2019-03-22T09:20:33.092Z,15.36
2019-03-22T09:25:38.979Z,15.57
2019-03-22T09:30:46.332Z,15.50
2019-03-22T09:35:54.030Z,15.57
2019-03-22T09:40:59.738Z,15.30
2019-03-22T09:46:06.091Z,15.41
2019-03-22T09:51:11.868Z,15.55
2019-03-22T09:56:18.017Z,15.64
2019-03-22T10:01:24.603Z,15.67
2019-03-22T10:06:30.993Z,16.00
2019-03-22T10:11:37.619Z,16.13
2019-03-22T10:16:43.352Z,15.94
2019-03-22T10:21:49.662Z,15.77
2019-03-22T10:26:56.187Z,15.04
2019-03-22T10:32:02.367Z,15.35
2019-03-22T10:37:08.276Z,15.69
2019-03-22T10:42:14.362Z,15.95
2019-03-22T10:47:20.143Z,15.85
2019-03-22T10:52:26.369Z,15.74
2019-03-22T10:57:32.112Z,15.47
2019-03-22T11:02:38.573Z,15.85
2019-03-22T11:07:44.506Z,15.91
2019-03-22T11:12:52.280Z,16.03
2019-03-22T11:17:59.222Z,16.18
2019-03-22T11:23:05.251Z,16.15
2019-03-22T11:28:12.095Z,16.13
2019-03-22T11:33:18.216Z,16.36
2019-03-22T11:38:25.058Z,16.07
2019-03-22T11:43:30.640Z,15.99
2019-03-22T11:48:37.921Z,16.28
2019-03-22T11:53:43.617Z,16.31
2019-03-22T11:58:51.053Z,16.51
2019-03-22T12:03:57.229Z,16.55
2019-03-22T12:09:03.555Z,16.72
2019-03-22T12:14:10.921Z,16.44
2019-03-22T12:19:16.898Z,16.71
2019-03-22T12:24:23.574Z,16.60
2019-03-22T12:29:29.803Z,16.70
2019-03-22T12:34:35.745Z,17.00
2019-03-22T12:39:41.971Z,16.79
2019-03-22T12:44:48.429Z,16.36
2019-03-22T12:49:54.031Z,16.75
2019-03-22T12:54:59.742Z,17.09
2019-03-22T13:00:11.105Z,16.73
2019-03-22T13:05:17.803Z,16.46
2019-03-22T13:10:27.785Z,16.27
2019-03-22T13:15:33.403Z,16.59
2019-03-22T13:20:39.257Z,17.15
2019-03-22T13:25:45.184Z,17.32
2019-03-22T13:30:51.698Z,17.59
2019-03-22T13:35:57.564Z,17.92
2019-03-22T13:41:04.261Z,17.86
2019-03-22T13:46:12.211Z,17.92
2019-03-22T13:51:17.778Z,18.18
2019-03-22T13:56:24.125Z,18.22
2019-03-22T14:01:29.997Z,18.15
2019-03-22T14:06:35.784Z,18.34
2019-03-22T14:11:42.022Z,18.56
2019-03-22T14:16:47.827Z,18.80
2019-03-22T14:21:54.162Z,18.78
2019-03-22T14:27:00.565Z,19.34
2019-03-22T14:32:07.935Z,19.51
2019-03-22T14:37:15.449Z,20.04
2019-03-22T14:42:21.031Z,20.62
2019-03-22T14:47:27.566Z,20.48
2019-03-22T14:52:34.350Z,20.93
2019-03-22T14:57:48.111Z,21.32
2019-03-22T15:02:47.359Z,22.01
2019-03-22T15:07:53.801Z,22.29
2019-03-22T15:13:00.921Z,22.69
2019-03-22T15:18:08.365Z,22.75
2019-03-22T15:23:28.962Z,22.75
2019-03-22T15:28:47.316Z,23.16
2019-03-22T15:33:58.595Z,23.52
2019-03-22T15:39:09.875Z,23.99
2019-03-22T15:44:16.624Z,23.52
2019-03-22T15:49:22.858Z,23.46
2019-03-22T15:54:29.381Z,23.33
2019-03-22T15:59:35.333Z,23.38
2019-03-22T16:04:42.238Z,23.57
2019-03-22T16:09:48.178Z,23.46
2019-03-22T16:14:54.481Z,23.52
2019-03-22T16:20:00.252Z,24.10
2019-03-22T16:25:11.051Z,24.44
2019-03-22T16:30:18.680Z,24.34
2019-03-22T16:35:24.971Z,24.27
2019-03-22T16:40:31.152Z,24.14
2019-03-22T16:45:39.636Z,23.00
2019-03-22T16:50:46.102Z,22.80
2019-03-22T16:55:52.654Z,22.31
2019-03-22T17:01:01.036Z,21.53
2019-03-22T17:06:07.557Z,21.09
